Meadows Field Bakersfield US
ICAO: KBFL
IATA: BFL
Category: Medium
Scheduled Services: No

Elevation: 510 ft
TransAlt. 18000 ft.

Airport Communications:
BAKERSFIELD APP:118.8
ATIS:118.6
CTAF:118.1
BAKERSFIELD DEP:126.45
GND:121.7
RANCHO RDO:122.45
BAKERSFIELD TWR:118.1
UNICOM:122.95

KBFL Zoom In..

Runways:

(A) RW 12L length 10855 ft width 150 ft
---- / hdg 121

(B) RW 12R length 7703 ft width 100 ft
---- / hdg 121

(C) RW 30L length 7703 ft width 100 ft
---- / hdg 301

(D) RW 30R length 10855 ft width 150 ft
ILS 111.90 / hdg 301

Location; KBFL
Day. 25 / Time. 11.54 Zulu
* Altimeter: 29.98
* Temperature: 19° c. 66.2°f.
* Wind from: 110° Speed 05 kn.
Dewpoint: 07° c.
Visibility: 10 Statute Miles.
Clouds: Clear (automated report).

KBFL 251154Z AUTO 11005KT 10SM CLR 19/07 A2998 RMK AO2 SLP145 T01890072 10239 20178 53004


Wind From 110°
Speed 05 kn.

  YouTube Music Video
 
jpsmedia.com for Web Design  worldairports.se 2018   terms of use